Midnight Wolf — HO7969 — position and weather

sailwx.info

Track history (hours):
 
Tides and Currents Weather Stations Pressure Air Temp Water Temp Dewpoint Dewpoint Depression Visibility Wind Speed Wind Dir Waves Ship Positions

Midnight Wolf

Last reported at 2016-Jan-27 16:32 UTC. Time now 2016-Feb-06 15:33 UTC.
Position N 18°24' W 064°36'.
Warning: this ship's position is 9 days out of date.

Length 51 m; draft 4 m.

Type: Cargo ship. MMSI: 351880000.

Date/timePositionNaut miles runAvg speedWind from/ knotsBaromVisibWave heightAir tempDewpointWater temp
2016-Jan-27 16:32N 18°24' W 064°36'2 2.4
2016-Jan-27 15:33N 18°22' W 064°35'0 0.0
2016-Jan-27 14:33N 18°22' W 064°35'3 0.1
2016-Jan-25 13:31N 18°24' W 064°37'10 8.6
2016-Jan-25 12:20N 18°17' W 064°44'7 9.0
2016-Jan-25 11:33N 18°17' W 064°52'1 0.1
2016-Jan-24 12:33N 18°17' W 064°53'13 9.1
2016-Jan-24 11:05N 18°20' W 064°39'5 9.8
2016-Jan-24 10:33N 18°24' W 064°36'1 1.3
2016-Jan-24 09:30N 18°26' W 064°37'0 0.0
2016-Jan-24 06:32N 18°26' W 064°37'0 0.0
2016-Jan-24 04:31N 18°26' W 064°37'0 0.0
2016-Jan-24 03:16N 18°26' W 064°37'0 0.0
2016-Jan-24 01:17N 18°26' W 064°37'0 0.0
2016-Jan-24 00:25N 18°26' W 064°37'0 0.0
2016-Jan-23 23:25N 18°26' W 064°37'0 0.0
2016-Jan-23 10:20N 18°26' W 064°37'0 0.0
2016-Jan-23 09:27N 18°26' W 064°37'0 0.0
2016-Jan-23 08:33N 18°26' W 064°37'0 0.0
2016-Jan-23 07:32N 18°26' W 064°37'0 0.0
2016-Jan-23 06:33N 18°26' W 064°37'0 0.0
2016-Jan-23 05:31N 18°26' W 064°37'0 0.0
2016-Jan-23 04:31N 18°26' W 064°37'0 0.0
2016-Jan-22 23:31N 18°26' W 064°37'  
2016-Jan-18 18:32N 18°21' W 064°39'11 8.7
2016-Jan-18 17:16N 18°17' W 064°49'  
Track history (hours):
 
Tides and Currents Weather Stations Pressure Air Temp Water Temp Dewpoint Dewpoint Depression Visibility Wind Speed Wind Dir Waves Ship Positions

Midnight Wolf

Last reported at 2016-Jan-27 16:32 UTC. Time now 2016-Feb-06 15:33 UTC.
Position N 18°24' W 064°36'.
Warning: this ship's position is 9 days out of date.

Length 51 m; draft 4 m.

Type: Cargo ship. MMSI: 351880000.

Date/timePositionNaut miles runAvg speedWind from/ knotsBaromVisibWave heightAir tempDewpointWater temp
2016-Jan-27 16:32N 18°24' W 064°36'2 2.4
2016-Jan-27 15:33N 18°22' W 064°35'0 0.0
2016-Jan-27 14:33N 18°22' W 064°35'3 0.1
2016-Jan-25 13:31N 18°24' W 064°37'10 8.6
2016-Jan-25 12:20N 18°17' W 064°44'7 9.0
2016-Jan-25 11:33N 18°17' W 064°52'1 0.1
2016-Jan-24 12:33N 18°17' W 064°53'13 9.1
2016-Jan-24 11:05N 18°20' W 064°39'5 9.8
2016-Jan-24 10:33N 18°24' W 064°36'1 1.3
2016-Jan-24 09:30N 18°26' W 064°37'0 0.0
2016-Jan-24 06:32N 18°26' W 064°37'0 0.0
2016-Jan-24 04:31N 18°26' W 064°37'0 0.0
2016-Jan-24 03:16N 18°26' W 064°37'0 0.0
2016-Jan-24 01:17N 18°26' W 064°37'0 0.0
2016-Jan-24 00:25N 18°26' W 064°37'0 0.0
2016-Jan-23 23:25N 18°26' W 064°37'0 0.0
2016-Jan-23 10:20N 18°26' W 064°37'0 0.0
2016-Jan-23 09:27N 18°26' W 064°37'0 0.0
2016-Jan-23 08:33N 18°26' W 064°37'0 0.0
2016-Jan-23 07:32N 18°26' W 064°37'0 0.0
2016-Jan-23 06:33N 18°26' W 064°37'0 0.0
2016-Jan-23 05:31N 18°26' W 064°37'0 0.0
2016-Jan-23 04:31N 18°26' W 064°37'0 0.0
2016-Jan-22 23:31N 18°26' W 064°37'  
2016-Jan-18 18:32N 18°21' W 064°39'11 8.7
2016-Jan-18 17:16N 18°17' W 064°49'  

Dump ship's entire track history